createdAt,value
2022-10-23T00:02:02.422Z,95.39
2022-10-23T00:05:07.137Z,95.10
2022-10-23T00:08:09.729Z,95.63
2022-10-23T00:11:14.269Z,95.98
2022-10-23T00:14:18.278Z,96.41
2022-10-23T00:17:20.977Z,96.43
2022-10-23T00:20:24.991Z,96.08
2022-10-23T00:23:27.593Z,95.23
2022-10-23T00:26:30.350Z,96.19
2022-10-23T00:29:32.956Z,96.76
2022-10-23T00:32:35.785Z,96.43
2022-10-23T00:35:41.835Z,95.97
2022-10-23T00:38:45.015Z,95.73
2022-10-23T00:41:47.617Z,96.32
2022-10-23T00:45:10.158Z,95.87
2022-10-23T00:48:12.768Z,95.43
2022-10-23T00:51:16.827Z,95.76
2022-10-23T00:54:25.279Z,96.21
2022-10-23T01:00:32.477Z,96.80
2022-10-23T01:03:35.260Z,95.89
2022-10-23T01:06:44.710Z,97.18
2022-10-23T01:09:52.504Z,97.28
2022-10-23T01:13:02.308Z,96.86
2022-10-23T01:16:10.169Z,96.71
2022-10-23T01:19:20.162Z,96.86
2022-10-23T01:22:49.478Z,96.56
2022-10-23T01:26:00.583Z,96.25
2022-10-23T01:29:10.098Z,97.14
2022-10-23T01:32:15.149Z,97.61
2022-10-23T01:35:20.431Z,97.51
2022-10-23T01:38:27.084Z,97.25
2022-10-23T01:41:31.490Z,97.08
2022-10-23T01:44:38.798Z,96.36
2022-10-23T01:47:42.952Z,96.76
2022-10-23T01:50:46.644Z,96.93
2022-10-23T01:53:50.877Z,97.23
2022-10-23T01:56:54.173Z,97.50
2022-10-23T02:00:00.485Z,97.64
2022-10-23T02:03:04.581Z,97.70
2022-10-23T02:06:07.667Z,96.88
2022-10-23T02:09:10.340Z,97.48
2022-10-23T02:12:15.404Z,97.49
2022-10-23T02:15:25.835Z,97.85
2022-10-23T02:18:34.277Z,97.45
2022-10-23T02:21:42.462Z,97.53
2022-10-23T02:24:48.519Z,97.63
2022-10-23T02:27:54.036Z,97.38
2022-10-23T02:31:00.021Z,97.71
2022-10-23T02:34:03.030Z,98.61
2022-10-23T02:37:05.795Z,97.81
2022-10-23T02:40:10.612Z,97.41
2022-10-23T02:43:16.784Z,97.34
2022-10-23T02:46:26.092Z,97.51
2022-10-23T02:49:32.758Z,97.93
2022-10-23T02:52:39.834Z,97.34
2022-10-23T02:55:53.976Z,97.59
2022-10-23T02:59:01.351Z,97.60
2022-10-23T03:02:08.365Z,97.95
2022-10-23T03:05:13.436Z,97.77
2022-10-23T03:08:16.124Z,98.04
2022-10-23T03:11:18.896Z,97.17
2022-10-23T03:14:21.533Z,97.01
2022-10-23T03:17:26.333Z,97.12
2022-10-23T03:20:29.052Z,96.49
2022-10-23T03:23:31.732Z,97.80
2022-10-23T03:26:34.487Z,97.29
2022-10-23T03:29:37.196Z,97.17
2022-10-23T03:32:41.402Z,97.24
2022-10-23T03:35:44.399Z,97.93
2022-10-23T03:38:47.144Z,97.45
2022-10-23T03:41:49.877Z,97.60
2022-10-23T03:44:52.534Z,97.31
2022-10-23T03:47:56.570Z,97.50
2022-10-23T03:50:59.237Z,97.46
2022-10-23T03:54:02.037Z,97.37
2022-10-23T03:57:08.406Z,97.14
2022-10-23T04:00:12.246Z,97.10
2022-10-23T04:03:16.226Z,96.78
2022-10-23T04:06:18.884Z,96.98
2022-10-23T04:09:21.569Z,97.03
2022-10-23T04:12:25.083Z,97.14
2022-10-23T04:15:27.664Z,97.27
2022-10-23T04:18:31.615Z,97.06
2022-10-23T04:21:34.321Z,96.28
2022-10-23T04:24:37.030Z,96.89
2022-10-23T04:27:39.871Z,97.28
2022-10-23T04:30:42.709Z,97.77
2022-10-23T04:33:46.672Z,97.73
2022-10-23T04:36:49.348Z,96.91
2022-10-23T04:39:52.016Z,97.17
2022-10-23T04:42:54.633Z,97.29
2022-10-23T04:45:57.348Z,96.78
2022-10-23T04:49:01.240Z,97.49
2022-10-23T04:52:04.346Z,96.65
2022-10-23T04:55:09.069Z,96.55
2022-10-23T04:58:11.874Z,96.94
2022-10-23T05:01:14.656Z,97.07
2022-10-23T05:04:18.759Z,96.22
2022-10-23T05:10:29.271Z,95.76
2022-10-23T05:13:34.890Z,95.83
2022-10-23T05:16:40.255Z,96.41
2022-10-23T05:19:48.750Z,96.34
2022-10-23T05:22:53.061Z,95.50
2022-10-23T05:25:55.693Z,95.29
2022-10-23T05:28:58.595Z,95.48
2022-10-23T05:32:03.638Z,95.84
2022-10-23T05:35:11.172Z,95.75
2022-10-23T05:38:14.736Z,95.85
2022-10-23T05:41:17.193Z,95.25
2022-10-23T05:44:19.878Z,95.42
2022-10-23T05:47:22.566Z,95.39
2022-10-23T05:50:26.693Z,95.52
2022-10-23T05:53:29.373Z,96.00
2022-10-23T05:56:32.122Z,96.43
2022-10-23T05:59:34.770Z,96.17
2022-10-23T06:02:37.593Z,96.15
2022-10-23T06:05:41.904Z,96.38
2022-10-23T06:08:44.725Z,97.09
2022-10-23T06:11:48.331Z,96.83
2022-10-23T06:14:51.862Z,96.14
2022-10-23T06:17:54.751Z,95.89
2022-10-23T06:21:01.514Z,95.93
2022-10-23T06:24:04.245Z,95.53
2022-10-23T06:27:06.882Z,95.69
2022-10-23T06:30:10.552Z,95.56
2022-10-23T06:33:13.299Z,95.21
2022-10-23T06:36:17.373Z,95.52
2022-10-23T06:39:21.321Z,94.63
2022-10-23T06:42:24.192Z,94.47
2022-10-23T06:45:27.067Z,94.35
2022-10-23T06:48:29.686Z,94.65
2022-10-23T06:51:33.786Z,93.83
2022-10-23T06:54:36.491Z,93.42
2022-10-23T06:57:39.219Z,92.79
2022-10-23T07:00:41.995Z,92.52
2022-10-23T07:03:45.045Z,91.61
2022-10-23T07:06:49.164Z,91.78
2022-10-23T07:09:51.800Z,90.99
2022-10-23T07:12:54.526Z,89.84
2022-10-23T07:15:57.289Z,89.61
2022-10-23T07:19:01.310Z,88.63
2022-10-23T07:22:05.427Z,88.80
2022-10-23T07:25:08.832Z,87.64
2022-10-23T07:28:11.403Z,87.43
2022-10-23T07:31:14.239Z,86.61
2022-10-23T07:34:17.018Z,85.81
2022-10-23T07:37:21.146Z,85.19
2022-10-23T07:40:23.919Z,84.61
2022-10-23T07:43:26.660Z,83.46
2022-10-23T07:46:29.298Z,81.72
2022-10-23T07:49:32.283Z,82.13
2022-10-23T07:52:37.348Z,81.83
2022-10-23T07:55:39.948Z,80.56
2022-10-23T07:58:42.624Z,80.09
2022-10-23T08:01:47.164Z,79.87
2022-10-23T08:04:50.273Z,79.76
2022-10-23T08:07:54.265Z,79.19
2022-10-23T08:10:56.985Z,78.83
2022-10-23T08:14:00.091Z,77.95
2022-10-23T08:17:03.289Z,77.50
2022-10-23T08:20:07.233Z,76.09
2022-10-23T08:23:12.738Z,75.42
2022-10-23T08:26:16.190Z,75.06
2022-10-23T08:29:18.691Z,74.53
2022-10-23T08:32:21.434Z,72.31
2022-10-23T08:35:24.282Z,72.39
2022-10-23T08:38:28.338Z,72.77
2022-10-23T08:41:33.767Z,72.24
2022-10-23T08:44:41.574Z,73.19
2022-10-23T08:47:47.904Z,73.67
2022-10-23T08:50:53.163Z,73.52
2022-10-23T08:54:01.786Z,73.48
2022-10-23T08:57:05.656Z,72.92
2022-10-23T09:00:12.517Z,72.10
2022-10-23T09:03:15.269Z,71.88
2022-10-23T09:06:36.406Z,70.90
2022-10-23T09:09:53.578Z,69.75
2022-10-23T09:12:58.676Z,69.38
2022-10-23T09:16:05.139Z,66.68
2022-10-23T09:19:13.749Z,66.98
2022-10-23T09:22:16.316Z,67.08
2022-10-23T09:25:22.660Z,66.70
2022-10-23T09:28:26.801Z,66.05
2022-10-23T09:31:29.469Z,65.13
2022-10-23T09:34:33.636Z,64.01
2022-10-23T09:37:37.568Z,62.75
2022-10-23T09:40:44.287Z,62.66
2022-10-23T09:43:47.114Z,61.16
2022-10-23T09:49:59.525Z,59.87
2022-10-23T09:53:02.467Z,59.35
2022-10-23T09:56:11.878Z,58.65
2022-10-23T09:59:22.862Z,57.90
2022-10-23T10:02:28.999Z,56.79
2022-10-23T10:05:34.358Z,56.87
2022-10-23T10:08:41.126Z,55.84
2022-10-23T10:11:47.578Z,55.26
2022-10-23T10:14:56.808Z,54.70
2022-10-23T10:18:07.010Z,53.21
2022-10-23T10:21:15.047Z,52.99
2022-10-23T10:24:21.280Z,53.13
2022-10-23T10:27:35.966Z,53.49
2022-10-23T10:30:45.524Z,52.24
2022-10-23T10:33:54.817Z,51.63
2022-10-23T10:36:59.185Z,50.85
2022-10-23T10:40:08.564Z,49.92
2022-10-23T10:43:26.374Z,49.45
2022-10-23T10:46:33.086Z,49.08
2022-10-23T10:49:37.967Z,49.61
2022-10-23T10:52:49.277Z,50.43
2022-10-23T10:55:53.611Z,50.26
2022-10-23T10:58:59.639Z,50.06
2022-10-23T11:02:06.575Z,48.60
2022-10-23T11:05:16.937Z,46.79
2022-10-23T11:08:22.356Z,46.31
2022-10-23T11:11:27.641Z,45.61
2022-10-23T11:14:34.174Z,45.67
2022-10-23T11:17:39.081Z,45.46
2022-10-23T11:20:53.573Z,47.28
2022-10-23T11:27:29.304Z,48.52
2022-10-23T11:30:37.146Z,49.35
2022-10-23T11:34:07.015Z,49.50
2022-10-23T11:37:09.895Z,49.93
2022-10-23T11:40:23.138Z,49.58
2022-10-23T11:43:30.615Z,49.15
2022-10-23T11:46:36.609Z,48.00
2022-10-23T11:49:39.366Z,47.72
2022-10-23T11:56:31.126Z,46.16
2022-10-23T11:59:35.435Z,45.11
2022-10-23T12:02:43.261Z,44.04
2022-10-23T12:05:46.533Z,44.31
2022-10-23T12:08:51.472Z,44.60
2022-10-23T12:12:18.069Z,44.33
2022-10-23T12:15:22.788Z,44.96
2022-10-23T12:18:27.484Z,44.79
2022-10-23T12:21:36.303Z,44.26
2022-10-23T12:24:56.895Z,44.62
2022-10-23T12:28:02.433Z,44.95
2022-10-23T12:31:17.861Z,44.62
2022-10-23T12:34:33.040Z,44.22
2022-10-23T12:37:56.096Z,44.12
2022-10-23T12:41:04.678Z,43.87
2022-10-23T12:44:12.774Z,42.04
2022-10-23T12:47:18.679Z,40.54
2022-10-23T12:50:24.537Z,39.39
2022-10-23T12:53:27.491Z,33.81
2022-10-23T12:56:36.981Z,29.68
2022-10-23T12:59:41.801Z,26.62
2022-10-23T13:02:44.555Z,25.63
2022-10-23T13:05:48.803Z,24.18
2022-10-23T13:08:52.456Z,21.51
2022-10-23T13:11:55.955Z,21.14
2022-10-23T13:15:03.449Z,19.73
2022-10-23T13:18:07.992Z,19.61
2022-10-23T13:21:18.552Z,18.18
2022-10-23T13:24:23.150Z,18.53
2022-10-23T13:27:27.798Z,19.74
2022-10-23T13:30:32.504Z,24.82
2022-10-23T13:33:37.536Z,30.06
2022-10-23T13:36:53.546Z,35.19
2022-10-23T13:40:04.486Z,38.21
2022-10-23T13:43:15.683Z,39.46
2022-10-23T13:46:19.402Z,42.39
2022-10-23T13:49:22.226Z,44.36
2022-10-23T13:52:26.131Z,45.64
2022-10-23T13:55:29.233Z,47.06
2022-10-23T13:58:32.326Z,48.68
2022-10-23T14:01:36.365Z,50.24
2022-10-23T14:04:39.429Z,52.42
2022-10-23T14:07:43.628Z,53.51
2022-10-23T14:10:47.203Z,55.16
2022-10-23T14:13:50.406Z,57.99
2022-10-23T14:16:53.200Z,59.66
2022-10-23T14:19:55.950Z,59.96
2022-10-23T14:22:59.955Z,61.89
2022-10-23T14:26:03.621Z,63.29
2022-10-23T14:29:09.885Z,63.62
2022-10-23T14:32:14.155Z,63.45
2022-10-23T14:35:17.071Z,63.75
2022-10-23T14:38:21.353Z,63.65
2022-10-23T14:41:24.342Z,64.65
2022-10-23T14:44:27.080Z,64.37
2022-10-23T14:47:29.933Z,64.37
2022-10-23T14:50:32.985Z,65.14
2022-10-23T14:53:37.007Z,65.30
2022-10-23T14:56:40.812Z,65.80
2022-10-23T14:59:43.761Z,66.32
2022-10-23T15:02:46.779Z,66.63
2022-10-23T15:05:49.494Z,66.83
2022-10-23T15:08:55.639Z,66.94
2022-10-23T15:11:59.163Z,66.84
2022-10-23T15:15:02.552Z,66.72
2022-10-23T15:18:06.110Z,67.66
2022-10-23T15:21:10.145Z,68.27
2022-10-23T15:24:14.297Z,67.96
2022-10-23T15:27:16.934Z,67.61
2022-10-23T15:30:19.752Z,67.42
2022-10-23T15:33:22.721Z,67.29
2022-10-23T15:36:25.657Z,67.82
2022-10-23T15:39:33.752Z,67.89
2022-10-23T15:42:36.432Z,67.68
2022-10-23T15:45:39.157Z,67.46
2022-10-23T15:48:42.611Z,67.99
2022-10-23T15:51:46.664Z,69.14
2022-10-23T15:54:51.340Z,70.58
2022-10-23T15:57:54.876Z,71.84
2022-10-23T16:00:59.208Z,72.76
2022-10-23T16:04:03.119Z,71.84
2022-10-23T16:07:07.250Z,72.64
2022-10-23T16:10:12.351Z,72.12
2022-10-23T16:13:15.778Z,72.50
2022-10-23T16:16:19.656Z,74.11
2022-10-23T16:19:22.868Z,75.02
2022-10-23T16:22:25.897Z,76.15
2022-10-23T16:25:30.606Z,76.98
2022-10-23T16:28:34.313Z,77.38
2022-10-23T16:31:38.036Z,76.09
2022-10-23T16:34:41.887Z,74.35
2022-10-23T16:37:45.435Z,73.34
2022-10-23T16:40:54.523Z,69.55
2022-10-23T16:43:58.049Z,68.96
2022-10-23T16:47:02.167Z,67.31
2022-10-23T16:50:05.946Z,67.29
2022-10-23T16:53:08.860Z,64.86
2022-10-23T16:56:15.267Z,62.58
2022-10-23T16:59:18.139Z,62.22
2022-10-23T17:02:21.238Z,61.50
2022-10-23T17:05:23.885Z,60.80
2022-10-23T17:08:26.539Z,63.27
2022-10-23T17:11:32.527Z,64.44
2022-10-23T17:14:35.867Z,65.09
2022-10-23T17:17:39.150Z,65.77
2022-10-23T17:20:42.110Z,66.25
2022-10-23T17:23:45.974Z,67.11
2022-10-23T17:26:50.287Z,67.48
2022-10-23T17:29:53.586Z,67.30
2022-10-23T17:32:59.462Z,66.82
2022-10-23T17:36:04.866Z,66.57
2022-10-23T17:39:09.198Z,65.15
2022-10-23T17:42:13.314Z,65.52
2022-10-23T17:45:16.048Z,66.02
2022-10-23T17:48:18.672Z,66.77
2022-10-23T17:51:23.192Z,66.93
2022-10-23T17:54:27.884Z,66.91
2022-10-23T17:57:31.999Z,67.53
2022-10-23T18:00:36.632Z,68.66
2022-10-23T18:03:39.894Z,69.69
2022-10-23T18:06:43.669Z,70.49
2022-10-23T18:09:46.128Z,71.86
2022-10-23T18:12:50.172Z,72.16
2022-10-23T18:15:52.777Z,72.49
2022-10-23T18:18:55.418Z,72.92
2022-10-23T18:21:58.160Z,72.94
2022-10-23T18:25:01.028Z,72.48
2022-10-23T18:28:05.440Z,72.55
2022-10-23T18:31:09.475Z,72.98
2022-10-23T18:34:15.829Z,72.19
2022-10-23T18:37:18.718Z,71.22
2022-10-23T18:40:24.292Z,70.94
2022-10-23T18:43:43.083Z,69.32
2022-10-23T18:46:47.889Z,67.17
2022-10-23T18:49:50.755Z,65.29
2022-10-23T18:52:54.007Z,66.15
2022-10-23T18:55:56.662Z,65.38
2022-10-23T18:59:02.782Z,65.94
2022-10-23T19:02:05.772Z,65.83
2022-10-23T19:05:09.267Z,65.81
2022-10-23T19:08:12.350Z,65.83
2022-10-23T19:11:16.910Z,66.67
2022-10-23T19:14:20.953Z,66.93
2022-10-23T19:17:25.841Z,67.17
2022-10-23T19:23:36.849Z,68.10
2022-10-23T19:26:39.620Z,68.06
2022-10-23T19:29:45.638Z,68.06
2022-10-23T19:32:49.260Z,68.34
2022-10-23T19:35:51.838Z,68.30
2022-10-23T19:38:54.669Z,68.58
2022-10-23T19:41:58.543Z,68.42
2022-10-23T19:45:02.764Z,68.71
2022-10-23T19:48:05.659Z,69.13
2022-10-23T19:51:09.238Z,66.70
2022-10-23T19:54:12.092Z,68.92
2022-10-23T19:57:17.030Z,68.97
2022-10-23T20:00:24.176Z,69.66
2022-10-23T20:03:26.931Z,69.95
2022-10-23T20:06:32.403Z,70.16
2022-10-23T20:09:35.129Z,70.25
2022-10-23T20:12:37.738Z,70.61
2022-10-23T20:15:41.746Z,65.68
2022-10-23T20:18:44.530Z,63.28
2022-10-23T20:21:49.034Z,60.78
2022-10-23T20:24:51.903Z,58.36
2022-10-23T20:27:54.546Z,57.86
2022-10-23T20:30:58.659Z,57.43
2022-10-23T20:34:01.303Z,55.10
2022-10-23T20:37:03.941Z,54.89
2022-10-23T20:40:07.625Z,54.12
2022-10-23T20:43:10.288Z,53.54
2022-10-23T20:46:14.394Z,52.92
2022-10-23T20:49:17.667Z,52.29
2022-10-23T20:52:22.040Z,52.47
2022-10-23T20:55:24.801Z,52.41
2022-10-23T20:58:27.463Z,52.24
2022-10-23T21:01:32.323Z,51.52
2022-10-23T21:04:35.126Z,51.84
2022-10-23T21:07:38.441Z,51.97
2022-10-23T21:10:46.156Z,51.69
2022-10-23T21:13:48.811Z,51.03
2022-10-23T21:16:53.232Z,51.69
2022-10-23T21:19:56.112Z,51.71
2022-10-23T21:22:59.104Z,51.30
2022-10-23T21:26:04.857Z,51.22
2022-10-23T21:29:18.870Z,51.13
2022-10-23T21:32:23.427Z,50.68
2022-10-23T21:35:29.981Z,50.08
2022-10-23T21:38:34.121Z,50.29
2022-10-23T21:41:36.873Z,50.01
2022-10-23T21:44:41.088Z,50.26
2022-10-23T21:47:46.331Z,50.14
2022-10-23T21:53:53.170Z,49.86
2022-10-23T21:56:56.762Z,49.85
2022-10-23T21:59:59.937Z,49.53
2022-10-23T22:03:05.368Z,49.72
2022-10-23T22:06:10.902Z,49.74
2022-10-23T22:09:16.138Z,49.78
2022-10-23T22:12:19.488Z,49.45
2022-10-23T22:15:22.258Z,49.59
2022-10-23T22:18:27.220Z,49.50
2022-10-23T22:21:32.484Z,49.76
2022-10-23T22:24:37.942Z,50.02
2022-10-23T22:27:41.200Z,49.82
2022-10-23T22:30:44.376Z,50.01
2022-10-23T22:33:49.634Z,50.06
2022-10-23T22:36:53.312Z,49.91
2022-10-23T22:39:56.902Z,50.03
2022-10-23T22:43:00.120Z,49.97
2022-10-23T22:46:05.273Z,49.92
2022-10-23T22:49:10.927Z,49.99
2022-10-23T22:52:14.395Z,49.99
2022-10-23T22:55:17.510Z,50.19
2022-10-23T22:58:21.036Z,50.31
2022-10-23T23:01:26.834Z,50.66
2022-10-23T23:04:39.175Z,50.77
2022-10-23T23:07:42.289Z,50.67
2022-10-23T23:10:53.649Z,50.65
2022-10-23T23:13:56.234Z,51.52
2022-10-23T23:16:59.049Z,51.56
2022-10-23T23:20:03.085Z,51.79
2022-10-23T23:23:05.958Z,51.41
2022-10-23T23:26:09.515Z,51.92
2022-10-23T23:29:12.964Z,51.83
2022-10-23T23:32:15.593Z,52.11
2022-10-23T23:35:20.244Z,51.48
2022-10-23T23:38:22.813Z,51.51
2022-10-23T23:41:26.062Z,51.31
2022-10-23T23:44:28.678Z,51.26
2022-10-23T23:47:31.500Z,51.77
2022-10-23T23:50:35.804Z,52.02
2022-10-23T23:53:38.389Z,52.16
2022-10-23T23:56:41.084Z,52.03
2022-10-23T23:59:43.686Z,51.96
